Аэропорт: им. Гейдара Алиева. Баку

ICAO: UBBB

METAR:
2018/11/21 19:00
UBBB 211900Z 33004KT 9999 SCT025CB OVC025 10/07 Q1018 R88/290060 NOSIG
METAR:
2018/11/21 18:09
TAF TAF UBBB 211707Z 2118/2218 02012KT 9999 BKN015 BKN025 TX11/2112Z TN08/2202Z 
      TEMPO 2118/2124 07010KT 5000 -RA BR BKN008 OVC030 
      BECMG 2200/2202 10012KT 
      TEMPO 2202/2218 15012KT -DZ OVC010